sensor_id;sensor_type;location;lat;lon;timestamp;temperature;humidity
75457;SHT31;64036;48.266;14.192;2023-09-19T00:01:34;17.98;81.20
75457;SHT31;64036;48.266;14.192;2023-09-19T00:04:00;18.01;81.17
75457;SHT31;64036;48.266;14.192;2023-09-19T00:06:30;18.05;81.04
75457;SHT31;64036;48.266;14.192;2023-09-19T00:08:57;18.08;80.94
75457;SHT31;64036;48.266;14.192;2023-09-19T00:11:26;18.08;80.85
75457;SHT31;64036;48.266;14.192;2023-09-19T00:13:52;18.06;80.89
75457;SHT31;64036;48.266;14.192;2023-09-19T00:16:18;18.04;80.96
75457;SHT31;64036;48.266;14.192;2023-09-19T00:18:44;18.05;81.00
75457;SHT31;64036;48.266;14.192;2023-09-19T00:21:10;18.07;80.91
75457;SHT31;64036;48.266;14.192;2023-09-19T00:23:36;18.05;80.88
75457;SHT31;64036;48.266;14.192;2023-09-19T00:26:02;18.02;80.99
75457;SHT31;64036;48.266;14.192;2023-09-19T00:28:29;18.01;81.04
75457;SHT31;64036;48.266;14.192;2023-09-19T00:30:56;18.01;81.15
75457;SHT31;64036;48.266;14.192;2023-09-19T00:33:26;18.02;81.11
75457;SHT31;64036;48.266;14.192;2023-09-19T00:35:54;18.02;81.14
75457;SHT31;64036;48.266;14.192;2023-09-19T00:38:22;18.04;81.14
75457;SHT31;64036;48.266;14.192;2023-09-19T00:40:52;18.02;81.10
75457;SHT31;64036;48.266;14.192;2023-09-19T00:43:22;17.97;81.21
75457;SHT31;64036;48.266;14.192;2023-09-19T00:45:50;17.93;81.35
75457;SHT31;64036;48.266;14.192;2023-09-19T00:48:19;17.93;81.40
75457;SHT31;64036;48.266;14.192;2023-09-19T00:50:46;17.94;81.40
75457;SHT31;64036;48.266;14.192;2023-09-19T00:53:15;17.95;81.45
75457;SHT31;64036;48.266;14.192;2023-09-19T00:55:46;17.94;81.49
75457;SHT31;64036;48.266;14.192;2023-09-19T00:58:12;17.93;81.51
75457;SHT31;64036;48.266;14.192;2023-09-19T01:00:38;17.93;81.47
75457;SHT31;64036;48.266;14.192;2023-09-19T01:03:05;17.93;81.41
75457;SHT31;64036;48.266;14.192;2023-09-19T01:05:31;17.93;81.40
75457;SHT31;64036;48.266;14.192;2023-09-19T01:07:59;17.94;81.37
75457;SHT31;64036;48.266;14.192;2023-09-19T01:10:25;17.92;81.40
75457;SHT31;64036;48.266;14.192;2023-09-19T01:12:58;17.92;81.40
75457;SHT31;64036;48.266;14.192;2023-09-19T01:30:56;17.95;81.06
75457;SHT31;64036;48.266;14.192;2023-09-19T01:33:24;17.92;81.36
75457;SHT31;64036;48.266;14.192;2023-09-19T01:35:51;17.91;81.40
75457;SHT31;64036;48.266;14.192;2023-09-19T01:38:23;17.87;81.49
75457;SHT31;64036;48.266;14.192;2023-09-19T01:41:02;17.86;81.45
75457;SHT31;64036;48.266;14.192;2023-09-19T01:43:36;17.83;81.54
75457;SHT31;64036;48.266;14.192;2023-09-19T01:46:17;17.80;81.57
75457;SHT31;64036;48.266;14.192;2023-09-19T01:52:12;17.74;81.73
75457;SHT31;64036;48.266;14.192;2023-09-19T01:54:58;17.78;81.70
75457;SHT31;64036;48.266;14.192;2023-09-19T01:57:34;17.80;81.43
75457;SHT31;64036;48.266;14.192;2023-09-19T02:00:09;17.79;81.29
75457;SHT31;64036;48.266;14.192;2023-09-19T02:02:37;17.77;81.20
75457;SHT31;64036;48.266;14.192;2023-09-19T02:05:05;17.76;81.16
75457;SHT31;64036;48.266;14.192;2023-09-19T02:07:32;17.74;81.10
75457;SHT31;64036;48.266;14.192;2023-09-19T02:09:58;17.72;81.07
75457;SHT31;64036;48.266;14.192;2023-09-19T02:12:25;17.73;81.08
75457;SHT31;64036;48.266;14.192;2023-09-19T02:14:54;17.72;81.10
75457;SHT31;64036;48.266;14.192;2023-09-19T02:17:22;17.71;81.09
75457;SHT31;64036;48.266;14.192;2023-09-19T02:19:51;17.68;81.10
75457;SHT31;64036;48.266;14.192;2023-09-19T02:22:19;17.66;80.98
75457;SHT31;64036;48.266;14.192;2023-09-19T02:24:46;17.66;80.94
75457;SHT31;64036;48.266;14.192;2023-09-19T02:27:13;17.65;81.02
75457;SHT31;64036;48.266;14.192;2023-09-19T02:29:41;17.63;81.10
75457;SHT31;64036;48.266;14.192;2023-09-19T02:32:07;17.61;81.10
75457;SHT31;64036;48.266;14.192;2023-09-19T02:34:34;17.59;81.16
75457;SHT31;64036;48.266;14.192;2023-09-19T02:37:04;17.58;81.29
75457;SHT31;64036;48.266;14.192;2023-09-19T02:39:34;17.54;81.40
75457;SHT31;64036;48.266;14.192;2023-09-19T02:42:00;17.52;81.43
75457;SHT31;64036;48.266;14.192;2023-09-19T02:44:26;17.50;81.46
75457;SHT31;64036;48.266;14.192;2023-09-19T02:46:52;17.49;81.50
75457;SHT31;64036;48.266;14.192;2023-09-19T02:49:18;17.49;81.40
75457;SHT31;64036;48.266;14.192;2023-09-19T02:51:44;17.46;81.48
75457;SHT31;64036;48.266;14.192;2023-09-19T02:54:11;17.44;81.52
75457;SHT31;64036;48.266;14.192;2023-09-19T02:56:37;17.43;81.61
75457;SHT31;64036;48.266;14.192;2023-09-19T02:59:04;17.42;81.66
75457;SHT31;64036;48.266;14.192;2023-09-19T03:01:30;17.42;81.69
75457;SHT31;64036;48.266;14.192;2023-09-19T03:03:57;17.38;81.70
75457;SHT31;64036;48.266;14.192;2023-09-19T03:06:23;17.36;81.71
75457;SHT31;64036;48.266;14.192;2023-09-19T03:08:49;17.34;81.71
75457;SHT31;64036;48.266;14.192;2023-09-19T03:11:16;17.31;81.83
75457;SHT31;64036;48.266;14.192;2023-09-19T03:13:50;17.29;81.86
75457;SHT31;64036;48.266;14.192;2023-09-19T03:16:19;17.24;81.90
75457;SHT31;64036;48.266;14.192;2023-09-19T03:18:47;17.20;81.94
75457;SHT31;64036;48.266;14.192;2023-09-19T03:21:14;17.16;81.98
75457;SHT31;64036;48.266;14.192;2023-09-19T03:23:44;17.15;81.98
75457;SHT31;64036;48.266;14.192;2023-09-19T03:26:11;17.12;82.06
75457;SHT31;64036;48.266;14.192;2023-09-19T03:28:41;17.09;82.17
75457;SHT31;64036;48.266;14.192;2023-09-19T03:31:08;17.05;82.33
75457;SHT31;64036;48.266;14.192;2023-09-19T03:33:34;17.04;82.46
75457;SHT31;64036;48.266;14.192;2023-09-19T03:36:00;17.01;82.57
75457;SHT31;64036;48.266;14.192;2023-09-19T03:38:31;16.98;82.69
75457;SHT31;64036;48.266;14.192;2023-09-19T03:40:58;16.97;82.80
75457;SHT31;64036;48.266;14.192;2023-09-19T03:43:24;16.95;82.86
75457;SHT31;64036;48.266;14.192;2023-09-19T03:45:50;16.96;82.91
75457;SHT31;64036;48.266;14.192;2023-09-19T03:48:19;16.96;82.97
75457;SHT31;64036;48.266;14.192;2023-09-19T03:50:46;16.95;83.00
75457;SHT31;64036;48.266;14.192;2023-09-19T03:53:13;16.97;83.01
75457;SHT31;64036;48.266;14.192;2023-09-19T03:55:41;16.98;83.01
75457;SHT31;64036;48.266;14.192;2023-09-19T03:58:11;16.98;83.01
75457;SHT31;64036;48.266;14.192;2023-09-19T04:00:37;16.99;83.00
75457;SHT31;64036;48.266;14.192;2023-09-19T04:03:02;16.99;83.00
75457;SHT31;64036;48.266;14.192;2023-09-19T04:05:31;17.00;83.00
75457;SHT31;64036;48.266;14.192;2023-09-19T04:07:58;17.00;83.00
75457;SHT31;64036;48.266;14.192;2023-09-19T04:10:24;16.99;82.98
75457;SHT31;64036;48.266;14.192;2023-09-19T04:12:53;16.98;82.95
75457;SHT31;64036;48.266;14.192;2023-09-19T04:15:20;16.98;83.00
75457;SHT31;64036;48.266;14.192;2023-09-19T04:17:48;16.95;83.00
75457;SHT31;64036;48.266;14.192;2023-09-19T04:20:16;16.94;83.00
75457;SHT31;64036;48.266;14.192;2023-09-19T04:22:44;16.91;82.99
75457;SHT31;64036;48.266;14.192;2023-09-19T04:25:11;16.88;83.01
75457;SHT31;64036;48.266;14.192;2023-09-19T04:27:37;16.87;83.07
75457;SHT31;64036;48.266;14.192;2023-09-19T04:30:04;16.84;83.11
75457;SHT31;64036;48.266;14.192;2023-09-19T04:32:35;16.82;83.21
75457;SHT31;64036;48.266;14.192;2023-09-19T04:35:04;16.83;83.26
75457;SHT31;64036;48.266;14.192;2023-09-19T04:37:38;16.86;83.25
75457;SHT31;64036;48.266;14.192;2023-09-19T04:40:06;16.88;83.16
75457;SHT31;64036;48.266;14.192;2023-09-19T04:42:42;16.89;83.11
75457;SHT31;64036;48.266;14.192;2023-09-19T04:45:08;16.90;83.19
75457;SHT31;64036;48.266;14.192;2023-09-19T04:47:36;16.91;83.20
75457;SHT31;64036;48.266;14.192;2023-09-19T04:50:05;16.93;83.20
75457;SHT31;64036;48.266;14.192;2023-09-19T04:52:33;16.95;83.20
75457;SHT31;64036;48.266;14.192;2023-09-19T04:54:58;16.96;83.20
75457;SHT31;64036;48.266;14.192;2023-09-19T04:57:24;16.96;83.20
75457;SHT31;64036;48.266;14.192;2023-09-19T04:59:51;16.98;83.27
75457;SHT31;64036;48.266;14.192;2023-09-19T05:02:16;17.01;83.30
75457;SHT31;64036;48.266;14.192;2023-09-19T05:04:42;17.03;83.20
75457;SHT31;64036;48.266;14.192;2023-09-19T05:07:08;17.06;83.17
75457;SHT31;64036;48.266;14.192;2023-09-19T05:09:35;17.09;83.12
75457;SHT31;64036;48.266;14.192;2023-09-19T05:12:02;17.09;83.08
75457;SHT31;64036;48.266;14.192;2023-09-19T05:14:28;17.11;83.10
75457;SHT31;64036;48.266;14.192;2023-09-19T05:16:55;17.15;83.12
75457;SHT31;64036;48.266;14.192;2023-09-19T05:19:20;17.18;83.10
75457;SHT31;64036;48.266;14.192;2023-09-19T05:21:46;17.24;83.02
75457;SHT31;64036;48.266;14.192;2023-09-19T05:24:12;17.28;82.92
75457;SHT31;64036;48.266;14.192;2023-09-19T05:26:39;17.31;82.79
75457;SHT31;64036;48.266;14.192;2023-09-19T05:29:05;17.32;82.63
75457;SHT31;64036;48.266;14.192;2023-09-19T05:31:33;17.34;82.52
75457;SHT31;64036;48.266;14.192;2023-09-19T05:34:01;17.34;82.46
75457;SHT31;64036;48.266;14.192;2023-09-19T05:36:27;17.34;82.41
75457;SHT31;64036;48.266;14.192;2023-09-19T05:38:55;17.34;82.40
75457;SHT31;64036;48.266;14.192;2023-09-19T05:41:20;17.37;82.40
75457;SHT31;64036;48.266;14.192;2023-09-19T05:43:48;17.39;82.39
75457;SHT31;64036;48.266;14.192;2023-09-19T05:46:15;17.41;82.34
75457;SHT31;64036;48.266;14.192;2023-09-19T05:48:42;17.43;82.20
75457;SHT31;64036;48.266;14.192;2023-09-19T05:51:09;17.44;82.12
75457;SHT31;64036;48.266;14.192;2023-09-19T05:53:35;17.48;82.08
75457;SHT31;64036;48.266;14.192;2023-09-19T05:56:00;17.53;81.99
75457;SHT31;64036;48.266;14.192;2023-09-19T05:58:26;17.56;81.92
75457;SHT31;64036;48.266;14.192;2023-09-19T06:00:52;17.60;81.84
75457;SHT31;64036;48.266;14.192;2023-09-19T06:03:18;17.64;81.80
75457;SHT31;64036;48.266;14.192;2023-09-19T06:05:44;17.69;81.73
75457;SHT31;64036;48.266;14.192;2023-09-19T06:08:11;17.76;81.65
75457;SHT31;64036;48.266;14.192;2023-09-19T06:10:37;17.82;81.47
75457;SHT31;64036;48.266;14.192;2023-09-19T06:13:03;17.90;81.32
75457;SHT31;64036;48.266;14.192;2023-09-19T06:15:29;18.00;81.11
75457;SHT31;64036;48.266;14.192;2023-09-19T06:17:57;18.09;80.90
75457;SHT31;64036;48.266;14.192;2023-09-19T06:20:25;18.19;80.73
75457;SHT31;64036;48.266;14.192;2023-09-19T06:22:51;18.27;80.46
75457;SHT31;64036;48.266;14.192;2023-09-19T06:25:18;18.35;80.30
75457;SHT31;64036;48.266;14.192;2023-09-19T06:27:48;18.47;80.08
75457;SHT31;64036;48.266;14.192;2023-09-19T06:30:17;18.80;79.79
75457;SHT31;64036;48.266;14.192;2023-09-19T06:32:43;19.48;79.11
75457;SHT31;64036;48.266;14.192;2023-09-19T06:35:10;20.44;78.27
75457;SHT31;64036;48.266;14.192;2023-09-19T06:37:37;22.26;76.32
75457;SHT31;64036;48.266;14.192;2023-09-19T06:40:13;23.71;73.71
75457;SHT31;64036;48.266;14.192;2023-09-19T06:42:40;24.11;71.15
75457;SHT31;64036;48.266;14.192;2023-09-19T06:45:10;23.97;70.22
75457;SHT31;64036;48.266;14.192;2023-09-19T06:47:38;24.71;68.88
75457;SHT31;64036;48.266;14.192;2023-09-19T06:50:05;26.30;66.40
75457;SHT31;64036;48.266;14.192;2023-09-19T06:52:34;27.41;63.63
75457;SHT31;64036;48.266;14.192;2023-09-19T06:55:00;27.30;62.40
75457;SHT31;64036;48.266;14.192;2023-09-19T06:57:28;26.68;61.45
75457;SHT31;64036;48.266;14.192;2023-09-19T06:59:55;27.15;61.15
75457;SHT31;64036;48.266;14.192;2023-09-19T07:02:21;27.57;59.91
75457;SHT31;64036;48.266;14.192;2023-09-19T07:04:47;27.42;59.98
75457;SHT31;64036;48.266;14.192;2023-09-19T07:07:13;27.39;59.38
75457;SHT31;64036;48.266;14.192;2023-09-19T07:09:39;26.84;59.32
75457;SHT31;64036;48.266;14.192;2023-09-19T07:12:05;26.12;59.78
75457;SHT31;64036;48.266;14.192;2023-09-19T07:14:31;25.41;60.63
75457;SHT31;64036;48.266;14.192;2023-09-19T07:16:57;24.77;61.38
75457;SHT31;64036;48.266;14.192;2023-09-19T07:19:25;24.26;62.13
75457;SHT31;64036;48.266;14.192;2023-09-19T07:21:53;23.88;62.95
75457;SHT31;64036;48.266;14.192;2023-09-19T07:24:19;23.61;63.72
75457;SHT31;64036;48.266;14.192;2023-09-19T07:26:48;23.40;64.33
75457;SHT31;64036;48.266;14.192;2023-09-19T07:29:14;23.30;64.67
75457;SHT31;64036;48.266;14.192;2023-09-19T07:31:40;23.38;65.43
75457;SHT31;64036;48.266;14.192;2023-09-19T07:34:07;23.62;65.14
75457;SHT31;64036;48.266;14.192;2023-09-19T07:36:34;23.88;64.84
75457;SHT31;64036;48.266;14.192;2023-09-19T07:39:02;24.17;64.73
75457;SHT31;64036;48.266;14.192;2023-09-19T07:41:32;24.26;64.44
75457;SHT31;64036;48.266;14.192;2023-09-19T07:43:59;24.13;64.24
75457;SHT31;64036;48.266;14.192;2023-09-19T07:46:25;24.06;63.99
75457;SHT31;64036;48.266;14.192;2023-09-19T07:48:51;23.99;64.31
75457;SHT31;64036;48.266;14.192;2023-09-19T07:51:17;24.02;64.69
75457;SHT31;64036;48.266;14.192;2023-09-19T07:53:43;24.26;64.27
75457;SHT31;64036;48.266;14.192;2023-09-19T07:56:09;24.64;63.54
75457;SHT31;64036;48.266;14.192;2023-09-19T07:58:35;24.85;63.24
75457;SHT31;64036;48.266;14.192;2023-09-19T08:01:06;25.10;63.22
75457;SHT31;64036;48.266;14.192;2023-09-19T08:03:33;25.37;63.08
75457;SHT31;64036;48.266;14.192;2023-09-19T08:06:00;25.63;62.28
75457;SHT31;64036;48.266;14.192;2023-09-19T08:08:26;25.69;62.08
75457;SHT31;64036;48.266;14.192;2023-09-19T08:10:55;25.45;61.61
75457;SHT31;64036;48.266;14.192;2023-09-19T08:13:23;25.13;61.69
75457;SHT31;64036;48.266;14.192;2023-09-19T08:15:49;24.87;62.26
75457;SHT31;64036;48.266;14.192;2023-09-19T08:18:19;24.61;62.66
75457;SHT31;64036;48.266;14.192;2023-09-19T08:20:51;24.30;62.74
75457;SHT31;64036;48.266;14.192;2023-09-19T08:23:18;23.99;63.50
75457;SHT31;64036;48.266;14.192;2023-09-19T08:25:46;23.82;63.69
75457;SHT31;64036;48.266;14.192;2023-09-19T08:28:12;23.70;64.07
75457;SHT31;64036;48.266;14.192;2023-09-19T08:30:43;23.65;64.41
75457;SHT31;64036;48.266;14.192;2023-09-19T08:33:10;23.55;64.58
75457;SHT31;64036;48.266;14.192;2023-09-19T08:35:36;23.50;64.52
75457;SHT31;64036;48.266;14.192;2023-09-19T08:38:04;23.41;64.86
75457;SHT31;64036;48.266;14.192;2023-09-19T08:40:31;23.28;64.92
75457;SHT31;64036;48.266;14.192;2023-09-19T08:43:01;23.12;65.03
75457;SHT31;64036;48.266;14.192;2023-09-19T08:45:26;22.93;65.30
75457;SHT31;64036;48.266;14.192;2023-09-19T08:53:47;22.28;65.96
75457;SHT31;64036;48.266;14.192;2023-09-19T08:56:20;22.15;66.24
75457;SHT31;64036;48.266;14.192;2023-09-19T08:58:51;22.09;66.71
75457;SHT31;64036;48.266;14.192;2023-09-19T09:01:23;22.06;66.73
75457;SHT31;64036;48.266;14.192;2023-09-19T09:03:52;22.07;66.75
75457;SHT31;64036;48.266;14.192;2023-09-19T09:06:20;22.06;66.62
75457;SHT31;64036;48.266;14.192;2023-09-19T09:08:48;22.12;66.59
75457;SHT31;64036;48.266;14.192;2023-09-19T09:11:16;22.17;66.72
75457;SHT31;64036;48.266;14.192;2023-09-19T09:13:45;22.23;66.41
75457;SHT31;64036;48.266;14.192;2023-09-19T09:16:13;22.28;66.64
75457;SHT31;64036;48.266;14.192;2023-09-19T09:18:43;22.27;66.27
75457;SHT31;64036;48.266;14.192;2023-09-19T09:21:10;22.23;66.14
75457;SHT31;64036;48.266;14.192;2023-09-19T09:23:39;22.28;66.06
75457;SHT31;64036;48.266;14.192;2023-09-19T09:26:05;22.52;65.50
75457;SHT31;64036;48.266;14.192;2023-09-19T09:28:33;22.87;64.98
75457;SHT31;64036;48.266;14.192;2023-09-19T09:31:01;23.26;64.77
75457;SHT31;64036;48.266;14.192;2023-09-19T09:33:34;23.54;64.13
75457;SHT31;64036;48.266;14.192;2023-09-19T09:36:01;23.73;63.36
75457;SHT31;64036;48.266;14.192;2023-09-19T09:38:29;23.99;62.81
75457;SHT31;64036;48.266;14.192;2023-09-19T09:41:13;24.80;62.04
75457;SHT31;64036;48.266;14.192;2023-09-19T09:43:52;25.94;59.93
75457;SHT31;64036;48.266;14.192;2023-09-19T09:46:19;26.98;57.54
75457;SHT31;64036;48.266;14.192;2023-09-19T09:49:02;27.72;55.63
75457;SHT31;64036;48.266;14.192;2023-09-19T09:51:44;28.35;53.41
75457;SHT31;64036;48.266;14.192;2023-09-19T09:54:28;28.14;52.87
75457;SHT31;64036;48.266;14.192;2023-09-19T09:57:05;28.07;53.24
75457;SHT31;64036;48.266;14.192;2023-09-19T09:59:57;28.29;53.38
75457;SHT31;64036;48.266;14.192;2023-09-19T10:02:36;28.59;52.30
75457;SHT31;64036;48.266;14.192;2023-09-19T10:07:52;28.40;52.10
75457;SHT31;64036;48.266;14.192;2023-09-19T10:10:31;28.19;52.04
75457;SHT31;64036;48.266;14.192;2023-09-19T10:13:05;28.24;52.63
75457;SHT31;64036;48.266;14.192;2023-09-19T10:15:33;28.57;52.78
75457;SHT31;64036;48.266;14.192;2023-09-19T10:18:01;28.54;52.21
75457;SHT31;64036;48.266;14.192;2023-09-19T10:20:29;28.28;52.07
75457;SHT31;64036;48.266;14.192;2023-09-19T10:23:00;28.04;52.79
75457;SHT31;64036;48.266;14.192;2023-09-19T10:25:34;28.03;52.02
75457;SHT31;64036;48.266;14.192;2023-09-19T10:28:05;27.87;51.71
75457;SHT31;64036;48.266;14.192;2023-09-19T10:30:42;27.76;52.03
75457;SHT31;64036;48.266;14.192;2023-09-19T10:33:12;27.82;51.65
75457;SHT31;64036;48.266;14.192;2023-09-19T10:35:41;27.68;50.96
75457;SHT31;64036;48.266;14.192;2023-09-19T10:38:10;27.84;51.52
75457;SHT31;64036;48.266;14.192;2023-09-19T10:40:44;27.84;51.15
75457;SHT31;64036;48.266;14.192;2023-09-19T10:43:15;27.57;51.44
75457;SHT31;64036;48.266;14.192;2023-09-19T10:45:43;27.40;51.84
75457;SHT31;64036;48.266;14.192;2023-09-19T10:48:14;27.31;51.72
75457;SHT31;64036;48.266;14.192;2023-09-19T10:56:30;27.23;53.16
75457;SHT31;64036;48.266;14.192;2023-09-19T11:01:44;28.51;53.04
75457;SHT31;64036;48.266;14.192;2023-09-19T11:07:07;28.98;50.40
75457;SHT31;64036;48.266;14.192;2023-09-19T11:12:11;28.19;50.65
75457;SHT31;64036;48.266;14.192;2023-09-19T11:15:10;27.78;51.41
75457;SHT31;64036;48.266;14.192;2023-09-19T11:26:43;27.71;52.08
75457;SHT31;64036;48.266;14.192;2023-09-19T11:29:25;27.62;51.06
75457;SHT31;64036;48.266;14.192;2023-09-19T11:31:58;27.42;51.40
75457;SHT31;64036;48.266;14.192;2023-09-19T11:37:59;27.10;52.03
75457;SHT31;64036;48.266;14.192;2023-09-19T11:40:16;26.94;52.01
75457;SHT31;64036;48.266;14.192;2023-09-19T11:48:12;26.94;53.29
75457;SHT31;64036;48.266;14.192;2023-09-19T11:50:44;27.26;53.61
75457;SHT31;64036;48.266;14.192;2023-09-19T11:53:12;27.30;52.50
75457;SHT31;64036;48.266;14.192;2023-09-19T11:55:39;26.99;52.72
75457;SHT31;64036;48.266;14.192;2023-09-19T11:58:09;26.75;53.08
75457;SHT31;64036;48.266;14.192;2023-09-19T12:00:39;26.54;53.15
75457;SHT31;64036;48.266;14.192;2023-09-19T12:03:09;26.43;53.73
75457;SHT31;64036;48.266;14.192;2023-09-19T12:05:37;26.28;53.94
75457;SHT31;64036;48.266;14.192;2023-09-19T12:08:04;26.13;54.08
75457;SHT31;64036;48.266;14.192;2023-09-19T12:10:34;25.92;54.39
75457;SHT31;64036;48.266;14.192;2023-09-19T12:13:17;25.64;54.76
75457;SHT31;64036;48.266;14.192;2023-09-19T12:15:44;25.37;55.46
75457;SHT31;64036;48.266;14.192;2023-09-19T12:18:31;25.33;55.81
75457;SHT31;64036;48.266;14.192;2023-09-19T12:20:58;25.36;55.88
75457;SHT31;64036;48.266;14.192;2023-09-19T12:23:25;25.38;55.76
75457;SHT31;64036;48.266;14.192;2023-09-19T12:25:51;25.36;55.98
75457;SHT31;64036;48.266;14.192;2023-09-19T12:28:21;25.35;55.66
75457;SHT31;64036;48.266;14.192;2023-09-19T12:30:49;25.36;55.78
75457;SHT31;64036;48.266;14.192;2023-09-19T12:33:18;25.38;55.64
75457;SHT31;64036;48.266;14.192;2023-09-19T12:35:46;25.54;55.85
75457;SHT31;64036;48.266;14.192;2023-09-19T12:38:22;25.64;55.28
75457;SHT31;64036;48.266;14.192;2023-09-19T12:40:49;25.69;55.07
75457;SHT31;64036;48.266;14.192;2023-09-19T12:43:17;25.72;55.13
75457;SHT31;64036;48.266;14.192;2023-09-19T12:45:44;25.75;55.50
75457;SHT31;64036;48.266;14.192;2023-09-19T12:53:34;26.67;54.59
75457;SHT31;64036;48.266;14.192;2023-09-19T12:56:14;26.92;53.96
75457;SHT31;64036;48.266;14.192;2023-09-19T12:58:52;27.16;53.53
75457;SHT31;64036;48.266;14.192;2023-09-19T13:01:19;27.37;53.02
75457;SHT31;64036;48.266;14.192;2023-09-19T13:03:45;27.48;52.70
75457;SHT31;64036;48.266;14.192;2023-09-19T13:06:11;27.52;52.80
75457;SHT31;64036;48.266;14.192;2023-09-19T13:08:38;27.56;52.43
75457;SHT31;64036;48.266;14.192;2023-09-19T13:11:17;27.42;52.57
75457;SHT31;64036;48.266;14.192;2023-09-19T13:13:45;27.33;53.16
75457;SHT31;64036;48.266;14.192;2023-09-19T13:16:19;27.23;52.58
75457;SHT31;64036;48.266;14.192;2023-09-19T13:18:54;27.23;51.64
75457;SHT31;64036;48.266;14.192;2023-09-19T13:21:32;27.17;50.89
75457;SHT31;64036;48.266;14.192;2023-09-19T13:24:22;27.01;51.70
75457;SHT31;64036;48.266;14.192;2023-09-19T13:26:54;26.93;51.86
75457;SHT31;64036;48.266;14.192;2023-09-19T13:29:20;26.83;51.75
75457;SHT31;64036;48.266;14.192;2023-09-19T13:31:50;26.67;51.65
75457;SHT31;64036;48.266;14.192;2023-09-19T13:34:21;26.21;52.59
75457;SHT31;64036;48.266;14.192;2023-09-19T13:36:47;25.34;55.23
75457;SHT31;64036;48.266;14.192;2023-09-19T13:39:13;24.29;58.51
75457;SHT31;64036;48.266;14.192;2023-09-19T13:41:49;23.44;60.37
75457;SHT31;64036;48.266;14.192;2023-09-19T13:44:15;22.78;61.76
75457;SHT31;64036;48.266;14.192;2023-09-19T13:46:42;22.34;62.93
75457;SHT31;64036;48.266;14.192;2023-09-19T13:49:11;21.99;63.88
75457;SHT31;64036;48.266;14.192;2023-09-19T13:51:37;21.70;64.64
75457;SHT31;64036;48.266;14.192;2023-09-19T13:54:02;21.48;65.41
75457;SHT31;64036;48.266;14.192;2023-09-19T13:56:28;21.33;66.06
75457;SHT31;64036;48.266;14.192;2023-09-19T13:58:56;21.23;66.58
75457;SHT31;64036;48.266;14.192;2023-09-19T14:01:22;21.11;67.46
75457;SHT31;64036;48.266;14.192;2023-09-19T14:03:48;21.03;67.51
75457;SHT31;64036;48.266;14.192;2023-09-19T14:06:16;20.95;67.86
75457;SHT31;64036;48.266;14.192;2023-09-19T14:08:43;20.82;68.40
75457;SHT31;64036;48.266;14.192;2023-09-19T14:11:13;20.73;68.76
75457;SHT31;64036;48.266;14.192;2023-09-19T14:13:39;20.61;69.04
75457;SHT31;64036;48.266;14.192;2023-09-19T14:16:08;20.56;69.09
75457;SHT31;64036;48.266;14.192;2023-09-19T14:18:34;20.50;69.15
75457;SHT31;64036;48.266;14.192;2023-09-19T14:21:04;20.40;69.14
75457;SHT31;64036;48.266;14.192;2023-09-19T14:23:36;20.30;69.35
75457;SHT31;64036;48.266;14.192;2023-09-19T14:26:03;20.19;69.65
75457;SHT31;64036;48.266;14.192;2023-09-19T14:28:30;20.10;69.90
75457;SHT31;64036;48.266;14.192;2023-09-19T14:31:03;20.07;70.02
75457;SHT31;64036;48.266;14.192;2023-09-19T14:33:31;20.07;70.13
75457;SHT31;64036;48.266;14.192;2023-09-19T14:35:57;20.10;70.08
75457;SHT31;64036;48.266;14.192;2023-09-19T14:38:23;20.13;70.14
75457;SHT31;64036;48.266;14.192;2023-09-19T14:40:48;20.17;70.43
75457;SHT31;64036;48.266;14.192;2023-09-19T14:43:15;20.25;70.89
75457;SHT31;64036;48.266;14.192;2023-09-19T14:45:41;20.34;71.13
75457;SHT31;64036;48.266;14.192;2023-09-19T14:48:07;20.44;71.09
75457;SHT31;64036;48.266;14.192;2023-09-19T14:50:32;20.59;71.22
75457;SHT31;64036;48.266;14.192;2023-09-19T14:52:58;20.80;71.09
75457;SHT31;64036;48.266;14.192;2023-09-19T14:55:26;20.98;71.13
75457;SHT31;64036;48.266;14.192;2023-09-19T14:57:54;21.09;70.66
75457;SHT31;64036;48.266;14.192;2023-09-19T15:00:23;21.17;70.31
75457;SHT31;64036;48.266;14.192;2023-09-19T15:02:49;21.17;69.74
75457;SHT31;64036;48.266;14.192;2023-09-19T15:05:16;21.11;69.34
75457;SHT31;64036;48.266;14.192;2023-09-19T15:07:42;21.03;69.12
75457;SHT31;64036;48.266;14.192;2023-09-19T15:10:08;20.94;68.91
75457;SHT31;64036;48.266;14.192;2023-09-19T15:12:38;20.91;69.04
75457;SHT31;64036;48.266;14.192;2023-09-19T15:15:05;20.93;69.42
75457;SHT31;64036;48.266;14.192;2023-09-19T15:17:35;20.94;69.65
75457;SHT31;64036;48.266;14.192;2023-09-19T15:20:01;20.94;69.71
75457;SHT31;64036;48.266;14.192;2023-09-19T15:22:28;20.92;69.46
75457;SHT31;64036;48.266;14.192;2023-09-19T15:24:54;20.88;69.05
75457;SHT31;64036;48.266;14.192;2023-09-19T15:27:21;20.82;68.59
75457;SHT31;64036;48.266;14.192;2023-09-19T15:29:47;20.77;68.50
75457;SHT31;64036;48.266;14.192;2023-09-19T15:32:12;20.71;68.50
75457;SHT31;64036;48.266;14.192;2023-09-19T15:34:38;20.67;68.59
75457;SHT31;64036;48.266;14.192;2023-09-19T15:37:04;20.60;68.16
75457;SHT31;64036;48.266;14.192;2023-09-19T15:39:30;20.51;68.21
75457;SHT31;64036;48.266;14.192;2023-09-19T15:41:59;20.45;68.67
75457;SHT31;64036;48.266;14.192;2023-09-19T15:44:25;20.38;69.02
75457;SHT31;64036;48.266;14.192;2023-09-19T15:46:53;20.28;69.21
75457;SHT31;64036;48.266;14.192;2023-09-19T15:49:19;20.21;69.32
75457;SHT31;64036;48.266;14.192;2023-09-19T15:51:46;20.17;69.33
75457;SHT31;64036;48.266;14.192;2023-09-19T15:54:15;20.17;69.33
75457;SHT31;64036;48.266;14.192;2023-09-19T15:56:44;20.15;69.37
75457;SHT31;64036;48.266;14.192;2023-09-19T15:59:12;20.13;69.22
75457;SHT31;64036;48.266;14.192;2023-09-19T16:01:38;20.04;69.09
75457;SHT31;64036;48.266;14.192;2023-09-19T16:04:08;19.97;69.16
75457;SHT31;64036;48.266;14.192;2023-09-19T16:06:34;19.91;69.31
75457;SHT31;64036;48.266;14.192;2023-09-19T16:09:02;19.87;69.06
75457;SHT31;64036;48.266;14.192;2023-09-19T16:11:29;19.84;69.01
75457;SHT31;64036;48.266;14.192;2023-09-19T16:13:58;19.80;69.10
75457;SHT31;64036;48.266;14.192;2023-09-19T16:16:24;19.77;69.21
75457;SHT31;64036;48.266;14.192;2023-09-19T16:19:01;19.72;69.36
75457;SHT31;64036;48.266;14.192;2023-09-19T16:21:30;19.67;69.55
75457;SHT31;64036;48.266;14.192;2023-09-19T16:23:57;19.62;69.73
75457;SHT31;64036;48.266;14.192;2023-09-19T16:26:25;19.56;69.69
75457;SHT31;64036;48.266;14.192;2023-09-19T16:28:52;19.53;69.78